createdAt,value
2023-07-23T00:00:39.142Z,2.30
2023-07-23T00:03:07.071Z,2.00
2023-07-23T00:05:35.038Z,2.33
2023-07-23T00:08:04.626Z,1.90
2023-07-23T00:10:32.617Z,2.20
2023-07-23T00:13:00.608Z,2.27
2023-07-23T00:15:28.689Z,2.03
2023-07-23T00:17:59.417Z,2.10
2023-07-23T00:20:27.512Z,1.90
2023-07-23T00:22:55.518Z,2.33
2023-07-23T00:25:24.897Z,2.20
2023-07-23T00:27:52.927Z,2.13
2023-07-23T00:30:21.051Z,1.93
2023-07-23T00:32:49.263Z,2.30
2023-07-23T00:35:17.486Z,2.10
2023-07-23T00:37:45.541Z,2.20
2023-07-23T00:40:14.557Z,2.00
2023-07-23T00:42:44.361Z,2.20
2023-07-23T00:45:12.403Z,1.90
2023-07-23T00:47:40.664Z,2.10
2023-07-23T00:50:09.556Z,2.40
2023-07-23T00:52:37.702Z,2.30
2023-07-23T00:55:06.558Z,2.07
2023-07-23T00:57:34.526Z,2.17
2023-07-23T01:00:06.755Z,2.10
2023-07-23T01:02:34.723Z,2.23
2023-07-23T01:05:03.536Z,2.00
2023-07-23T01:07:31.772Z,2.30
2023-07-23T01:10:01.065Z,2.43
2023-07-23T01:12:29.071Z,2.60
2023-07-23T01:14:57.494Z,2.20
2023-07-23T01:17:26.885Z,2.20
2023-07-23T01:20:02.376Z,2.17
2023-07-23T01:22:31.727Z,2.30
2023-07-23T01:24:59.665Z,2.03
2023-07-23T01:27:27.666Z,1.97
2023-07-23T01:29:55.713Z,2.07
2023-07-23T01:32:23.780Z,2.00
2023-07-23T01:34:51.781Z,2.40
2023-07-23T01:37:19.742Z,2.30
2023-07-23T01:39:49.078Z,2.03
2023-07-23T01:42:17.113Z,2.10
2023-07-23T01:44:45.066Z,2.13
2023-07-23T01:47:13.068Z,2.10
2023-07-23T01:49:41.112Z,2.20
2023-07-23T01:52:09.450Z,2.20
2023-07-23T01:54:37.429Z,2.00
2023-07-23T01:57:07.457Z,1.97
2023-07-23T01:59:35.736Z,2.03
2023-07-23T02:02:05.705Z,2.00
2023-07-23T02:04:33.712Z,1.90
2023-07-23T02:07:01.744Z,1.80
2023-07-23T02:09:29.917Z,1.80
2023-07-23T02:11:57.910Z,2.20
2023-07-23T02:14:27.232Z,2.00
2023-07-23T02:16:55.241Z,2.00
2023-07-23T02:19:23.291Z,2.10
2023-07-23T02:21:51.202Z,2.20
2023-07-23T02:24:19.323Z,2.10
2023-07-23T02:26:47.296Z,1.90
2023-07-23T02:29:15.337Z,2.20
2023-07-23T02:31:44.719Z,2.00
2023-07-23T02:34:12.686Z,2.20
2023-07-23T02:36:40.676Z,2.00
2023-07-23T02:39:08.638Z,2.17
2023-07-23T02:41:36.783Z,2.27
2023-07-23T02:44:05.164Z,2.10
2023-07-23T02:46:33.159Z,2.00
2023-07-23T02:49:03.436Z,2.00
2023-07-23T02:51:31.620Z,1.90
2023-07-23T02:53:59.722Z,2.07
2023-07-23T02:56:27.690Z,2.07
2023-07-23T02:58:55.770Z,1.93
2023-07-23T03:01:23.808Z,2.10
2023-07-23T03:03:51.848Z,2.13
2023-07-23T03:06:21.337Z,2.20
2023-07-23T03:08:49.250Z,2.80
2023-07-23T03:11:17.219Z,2.60
2023-07-23T03:13:45.166Z,3.00
2023-07-23T03:16:13.423Z,3.50
2023-07-23T03:18:41.631Z,3.70
2023-07-23T03:21:10.048Z,4.70
2023-07-23T03:23:39.333Z,5.03
2023-07-23T03:26:07.309Z,4.77
2023-07-23T03:28:35.251Z,5.50
2023-07-23T03:31:04.224Z,6.33
2023-07-23T03:33:32.185Z,6.33
2023-07-23T03:36:03.254Z,5.73
2023-07-23T03:38:32.396Z,7.00
2023-07-23T03:41:01.688Z,7.43
2023-07-23T03:43:30.219Z,7.37
2023-07-23T03:45:58.238Z,7.33
2023-07-23T03:48:26.286Z,7.57
2023-07-23T03:50:54.208Z,7.87
2023-07-23T03:53:22.169Z,7.93
2023-07-23T03:55:50.106Z,8.87
2023-07-23T03:58:19.483Z,8.30
2023-07-23T04:00:47.510Z,8.67
2023-07-23T04:03:15.521Z,9.27
2023-07-23T04:05:43.509Z,8.53
2023-07-23T04:08:13.496Z,7.93
2023-07-23T04:10:41.665Z,8.50
2023-07-23T04:13:10.376Z,9.57
2023-07-23T04:15:39.689Z,8.70
2023-07-23T04:18:13.747Z,9.00
2023-07-23T04:20:41.752Z,9.17
2023-07-23T04:23:09.720Z,9.10
2023-07-23T04:25:38.213Z,9.00
2023-07-23T04:28:06.425Z,9.23
2023-07-23T04:30:34.912Z,8.43
2023-07-23T04:33:06.322Z,8.60
2023-07-23T04:35:37.154Z,9.27
2023-07-23T04:38:05.116Z,9.37
2023-07-23T04:40:35.634Z,8.57
2023-07-23T04:43:04.451Z,9.07
2023-07-23T04:45:32.578Z,9.53
2023-07-23T04:48:00.659Z,9.33
2023-07-23T04:50:30.974Z,8.67
2023-07-23T04:52:58.954Z,8.53
2023-07-23T04:55:27.415Z,8.37
2023-07-23T04:57:55.306Z,9.37
2023-07-23T05:00:23.432Z,8.70
2023-07-23T05:02:51.441Z,8.70
2023-07-23T05:05:19.443Z,8.30
2023-07-23T05:07:48.717Z,8.53
2023-07-23T05:10:16.796Z,8.53
2023-07-23T05:12:44.717Z,8.37
2023-07-23T05:15:13.832Z,8.47
2023-07-23T05:17:42.406Z,8.20
2023-07-23T05:20:11.019Z,8.23
2023-07-23T05:22:39.697Z,8.27
2023-07-23T05:25:12.686Z,8.80
2023-07-23T05:27:40.709Z,8.17
2023-07-23T05:30:09.178Z,7.93
2023-07-23T05:32:37.126Z,8.73
2023-07-23T05:35:05.963Z,8.47
2023-07-23T05:37:33.900Z,8.77
2023-07-23T05:40:01.828Z,8.93
2023-07-23T05:42:31.177Z,8.47
2023-07-23T05:44:59.616Z,7.70
2023-07-23T05:47:27.567Z,7.40
2023-07-23T05:49:55.568Z,7.63
2023-07-23T05:52:23.607Z,7.43
2023-07-23T05:54:53.955Z,7.50
2023-07-23T05:57:21.943Z,7.50
2023-07-23T05:59:51.257Z,7.70
2023-07-23T06:02:19.206Z,8.20
2023-07-23T06:04:47.158Z,7.50
2023-07-23T06:07:15.076Z,7.80
2023-07-23T06:09:43.034Z,8.00
2023-07-23T06:12:11.036Z,6.60
2023-07-23T06:14:39.121Z,7.50
2023-07-23T06:17:09.045Z,6.97
2023-07-23T06:19:37.093Z,7.10
2023-07-23T06:22:05.766Z,7.30
2023-07-23T06:24:33.716Z,7.17
2023-07-23T06:27:01.684Z,7.43
2023-07-23T06:29:29.672Z,7.50
2023-07-23T06:31:58.214Z,6.70
2023-07-23T06:34:27.539Z,7.03
2023-07-23T06:36:55.479Z,6.73
2023-07-23T06:39:23.411Z,6.53
2023-07-23T06:41:51.415Z,6.63
2023-07-23T06:44:20.231Z,6.37
2023-07-23T06:46:48.292Z,6.77
2023-07-23T06:49:16.220Z,7.10
2023-07-23T06:51:45.551Z,7.00
2023-07-23T06:54:13.532Z,6.60
2023-07-23T06:56:41.501Z,6.43
2023-07-23T06:59:09.423Z,7.00
2023-07-23T07:01:37.440Z,6.50
2023-07-23T07:04:08.558Z,6.60
2023-07-23T07:06:36.597Z,6.77
2023-07-23T07:09:06.044Z,6.40
2023-07-23T07:11:34.085Z,6.67
2023-07-23T07:14:02.044Z,6.87
2023-07-23T07:16:29.995Z,5.87
2023-07-23T07:18:57.939Z,5.80
2023-07-23T07:21:28.239Z,5.90
2023-07-23T07:23:56.662Z,6.43
2023-07-23T07:26:26.042Z,5.80
2023-07-23T07:28:54.000Z,5.80
2023-07-23T07:31:22.011Z,5.60
2023-07-23T07:33:49.996Z,5.70
2023-07-23T07:36:22.219Z,6.17
2023-07-23T07:38:50.143Z,5.93
2023-07-23T07:41:18.192Z,5.80
2023-07-23T07:43:47.517Z,5.77
2023-07-23T07:46:17.059Z,5.57
2023-07-23T07:48:45.107Z,5.90
2023-07-23T07:51:13.093Z,5.50
2023-07-23T07:53:41.040Z,5.50
2023-07-23T07:56:14.801Z,5.40
2023-07-23T07:58:43.737Z,5.50
2023-07-23T08:01:13.648Z,5.10
2023-07-23T08:03:42.293Z,5.57
2023-07-23T08:06:10.376Z,5.47
2023-07-23T08:08:38.931Z,5.00
2023-07-23T08:11:09.259Z,4.87
2023-07-23T08:13:37.640Z,5.10
2023-07-23T08:16:06.111Z,5.30
2023-07-23T08:18:35.937Z,5.27
2023-07-23T08:21:04.052Z,4.93
2023-07-23T08:23:32.435Z,4.53
2023-07-23T08:26:01.062Z,4.70
2023-07-23T08:28:31.007Z,4.30
2023-07-23T08:31:01.247Z,4.73
2023-07-23T08:33:31.120Z,4.47
2023-07-23T08:36:01.318Z,5.27
2023-07-23T08:38:29.765Z,4.37
2023-07-23T08:40:59.296Z,4.60
2023-07-23T08:43:46.918Z,4.87
2023-07-23T08:46:24.922Z,4.40
2023-07-23T08:49:10.025Z,4.70
2023-07-23T08:51:44.360Z,4.43
2023-07-23T08:54:12.831Z,4.50
2023-07-23T08:56:44.426Z,4.33
2023-07-23T08:59:13.128Z,4.10
2023-07-23T09:01:41.935Z,4.50
2023-07-23T09:04:11.622Z,3.90
2023-07-23T09:06:39.600Z,4.03
2023-07-23T09:09:10.041Z,4.17
2023-07-23T09:11:40.349Z,4.17
2023-07-23T09:14:09.653Z,3.83
2023-07-23T09:16:38.502Z,3.67
2023-07-23T09:19:08.637Z,3.87
2023-07-23T09:21:36.622Z,3.43
2023-07-23T09:24:07.192Z,4.03
2023-07-23T09:26:38.470Z,3.90
2023-07-23T09:29:09.625Z,3.20
2023-07-23T09:31:38.101Z,3.60
2023-07-23T09:34:06.050Z,3.47
2023-07-23T09:36:33.999Z,3.40
2023-07-23T09:39:03.060Z,3.70
2023-07-23T09:41:32.718Z,3.27
2023-07-23T09:44:06.857Z,3.50
2023-07-23T09:46:34.897Z,3.30
2023-07-23T09:49:02.913Z,3.80
2023-07-23T09:51:31.983Z,3.57
2023-07-23T09:54:01.961Z,3.50
2023-07-23T09:56:29.964Z,3.20
2023-07-23T09:58:59.152Z,3.30
2023-07-23T10:01:29.377Z,2.80
2023-07-23T10:03:57.789Z,2.83
2023-07-23T10:06:25.989Z,3.13
2023-07-23T10:08:53.911Z,2.83
2023-07-23T10:11:21.902Z,2.97
2023-07-23T10:13:50.098Z,2.80
2023-07-23T10:16:20.916Z,2.90
2023-07-23T10:18:50.630Z,2.87
2023-07-23T10:21:19.953Z,3.10
2023-07-23T10:23:55.706Z,2.93
2023-07-23T10:26:25.930Z,2.70
2023-07-23T10:28:57.453Z,2.60
2023-07-23T10:31:27.348Z,2.90
2023-07-23T10:33:57.046Z,3.03
2023-07-23T10:36:25.105Z,2.63
2023-07-23T10:39:06.732Z,2.67
2023-07-23T10:41:51.750Z,2.97
2023-07-23T10:44:24.216Z,2.33
2023-07-23T10:46:52.206Z,2.23
2023-07-23T10:49:30.146Z,2.67
2023-07-23T10:52:13.759Z,2.67
2023-07-23T10:54:41.720Z,2.63
2023-07-23T10:57:09.695Z,2.60
2023-07-23T10:59:39.758Z,2.70
2023-07-23T11:02:07.854Z,2.20
2023-07-23T11:04:38.796Z,2.40
2023-07-23T11:07:07.785Z,2.53
2023-07-23T11:09:37.014Z,2.50
2023-07-23T11:12:06.895Z,2.30
2023-07-23T11:14:35.961Z,2.33
2023-07-23T11:17:04.786Z,2.33
2023-07-23T11:19:33.204Z,2.80
2023-07-23T11:22:03.449Z,2.27
2023-07-23T11:24:32.218Z,2.37
2023-07-23T11:27:00.860Z,2.37
2023-07-23T11:29:31.264Z,2.23
2023-07-23T11:32:02.321Z,2.20
2023-07-23T11:34:30.295Z,2.23
2023-07-23T11:36:58.199Z,2.40
2023-07-23T11:39:27.526Z,2.60
2023-07-23T11:41:55.626Z,1.97
2023-07-23T11:44:23.792Z,2.40
2023-07-23T11:46:52.162Z,2.20
2023-07-23T11:49:20.168Z,2.60
2023-07-23T11:51:48.251Z,2.23
2023-07-23T11:54:16.217Z,2.23
2023-07-23T11:56:47.256Z,2.33
2023-07-23T11:59:19.081Z,2.30
2023-07-23T12:01:47.629Z,2.30
2023-07-23T12:04:18.022Z,2.33
2023-07-23T12:06:45.959Z,2.20
2023-07-23T12:09:14.108Z,2.13
2023-07-23T12:11:44.833Z,2.20
2023-07-23T12:14:18.849Z,2.10
2023-07-23T12:16:48.437Z,2.40
2023-07-23T12:19:17.450Z,2.33
2023-07-23T12:21:46.379Z,2.80
2023-07-23T12:24:15.729Z,3.50
2023-07-23T12:26:45.199Z,3.87
2023-07-23T12:29:13.175Z,3.73
2023-07-23T12:31:42.248Z,3.17
2023-07-23T12:34:10.465Z,3.63
2023-07-23T12:36:38.555Z,3.33
2023-07-23T12:39:06.534Z,3.07
2023-07-23T12:41:35.095Z,2.90
2023-07-23T12:44:04.777Z,3.23
2023-07-23T12:46:32.798Z,3.27
2023-07-23T12:49:00.861Z,3.03
2023-07-23T12:51:28.864Z,3.10
2023-07-23T12:53:56.926Z,2.90
2023-07-23T12:56:24.941Z,2.73
2023-07-23T12:58:52.891Z,3.00
2023-07-23T13:01:22.210Z,2.97
2023-07-23T13:03:50.320Z,3.03
2023-07-23T13:06:18.319Z,2.47
2023-07-23T13:08:46.297Z,2.17
2023-07-23T13:11:14.312Z,2.93
2023-07-23T13:13:42.262Z,2.57
2023-07-23T13:16:11.329Z,2.17
2023-07-23T13:18:40.796Z,2.43
2023-07-23T13:21:08.761Z,2.40
2023-07-23T13:23:36.707Z,2.20
2023-07-23T13:26:04.608Z,2.37
2023-07-23T13:28:32.535Z,2.60
2023-07-23T13:31:00.552Z,2.20
2023-07-23T13:33:28.577Z,2.30
2023-07-23T13:35:57.932Z,2.07
2023-07-23T13:38:25.994Z,2.10
2023-07-23T13:40:53.947Z,2.17
2023-07-23T13:43:22.064Z,2.30
2023-07-23T13:45:52.088Z,2.20
2023-07-23T13:48:20.043Z,2.30
2023-07-23T13:50:51.613Z,2.30
2023-07-23T13:53:21.534Z,2.20
2023-07-23T13:55:49.529Z,2.30
2023-07-23T13:58:17.488Z,2.40
2023-07-23T14:00:45.470Z,2.07
2023-07-23T14:03:13.524Z,2.47
2023-07-23T14:05:41.590Z,2.30
2023-07-23T14:08:09.560Z,2.30
2023-07-23T14:10:38.928Z,2.50
2023-07-23T14:13:06.979Z,2.20
2023-07-23T14:15:35.099Z,2.30
2023-07-23T14:18:03.130Z,2.40
2023-07-23T14:20:31.135Z,2.43
2023-07-23T14:22:59.158Z,2.30
2023-07-23T14:25:27.487Z,2.30
2023-07-23T14:27:56.922Z,2.27
2023-07-23T14:30:24.948Z,2.10
2023-07-23T14:32:53.020Z,2.10
2023-07-23T14:35:21.242Z,2.40
2023-07-23T14:37:49.135Z,2.20
2023-07-23T14:40:17.077Z,2.30
2023-07-23T14:42:45.024Z,2.13
2023-07-23T14:45:18.169Z,2.27
2023-07-23T14:47:46.128Z,2.10
2023-07-23T14:50:14.036Z,2.10
2023-07-23T14:52:42.372Z,2.20
2023-07-23T14:55:10.605Z,2.30
2023-07-23T14:57:38.543Z,2.20
2023-07-23T15:00:08.696Z,2.37
2023-07-23T15:02:38.181Z,2.27
2023-07-23T15:05:07.776Z,2.20
2023-07-23T15:07:35.729Z,2.10
2023-07-23T15:10:04.679Z,2.30
2023-07-23T15:12:33.176Z,1.93
2023-07-23T15:15:01.615Z,2.20
2023-07-23T15:17:30.025Z,2.30
2023-07-23T15:19:59.930Z,2.10
2023-07-23T15:22:28.362Z,2.20
2023-07-23T15:24:56.642Z,2.20
2023-07-23T15:27:24.728Z,1.93
2023-07-23T15:29:55.242Z,2.30
2023-07-23T15:32:23.400Z,2.27
2023-07-23T15:34:51.444Z,2.10
2023-07-23T15:37:20.874Z,2.30
2023-07-23T15:39:48.837Z,2.10
2023-07-23T15:42:16.812Z,2.10
2023-07-23T15:44:44.782Z,2.27
2023-07-23T15:47:12.702Z,2.30
2023-07-23T15:49:40.642Z,2.00
2023-07-23T15:52:09.099Z,2.20
2023-07-23T15:54:38.380Z,2.30
2023-07-23T15:57:07.060Z,2.33
2023-07-23T15:59:35.029Z,2.20
2023-07-23T16:02:02.960Z,2.10
2023-07-23T16:04:31.992Z,2.00
2023-07-23T16:07:00.213Z,2.40
2023-07-23T16:09:28.406Z,2.23
2023-07-23T16:11:57.787Z,2.27
2023-07-23T16:14:25.830Z,2.20
2023-07-23T16:16:53.839Z,2.40
2023-07-23T16:19:23.338Z,2.13
2023-07-23T16:21:51.316Z,2.00
2023-07-23T16:24:19.310Z,2.17
2023-07-23T16:26:47.321Z,2.10
2023-07-23T16:29:16.758Z,2.63
2023-07-23T16:31:45.159Z,2.00
2023-07-23T16:34:13.661Z,2.30
2023-07-23T16:36:41.903Z,2.50
2023-07-23T16:39:09.833Z,2.47
2023-07-23T16:41:37.742Z,2.30
2023-07-23T16:44:05.961Z,2.00
2023-07-23T16:46:35.397Z,2.30
2023-07-23T16:49:03.366Z,2.30
2023-07-23T16:51:31.610Z,2.30
2023-07-23T16:53:59.813Z,2.20
2023-07-23T16:56:28.197Z,2.10
2023-07-23T16:58:56.564Z,2.50
2023-07-23T17:01:24.770Z,2.40
2023-07-23T17:03:54.173Z,2.00
2023-07-23T17:06:23.908Z,2.30
2023-07-23T17:08:51.878Z,3.10
2023-07-23T17:11:23.204Z,2.20
2023-07-23T17:13:51.916Z,1.90
2023-07-23T17:16:20.002Z,2.17
2023-07-23T17:18:48.004Z,2.40
2023-07-23T17:21:17.264Z,2.10
2023-07-23T17:23:45.236Z,2.10
2023-07-23T17:26:13.218Z,2.27
2023-07-23T17:28:41.192Z,2.30
2023-07-23T17:31:09.150Z,2.20
2023-07-23T17:33:37.130Z,2.20
2023-07-23T17:36:05.058Z,2.30
2023-07-23T17:38:34.369Z,2.10
2023-07-23T17:41:02.321Z,2.30
2023-07-23T17:43:30.291Z,2.10
2023-07-23T17:45:58.277Z,2.37
2023-07-23T17:48:26.238Z,2.23
2023-07-23T17:50:55.961Z,1.87
2023-07-23T17:53:23.978Z,2.10
2023-07-23T17:55:53.556Z,2.20
2023-07-23T17:58:21.451Z,2.10
2023-07-23T18:00:49.390Z,2.23
2023-07-23T18:03:17.337Z,2.00
2023-07-23T18:05:51.745Z,2.30
2023-07-23T18:08:19.874Z,2.43
2023-07-23T18:10:47.877Z,2.13
2023-07-23T18:13:19.298Z,2.20
2023-07-23T18:15:47.782Z,2.03
2023-07-23T18:18:15.736Z,2.20
2023-07-23T18:20:43.665Z,2.23
2023-07-23T18:23:11.624Z,2.70
2023-07-23T18:25:50.618Z,2.17
2023-07-23T18:28:28.289Z,2.40
2023-07-23T18:31:00.308Z,2.10
2023-07-23T18:33:28.302Z,2.07
2023-07-23T18:35:56.308Z,1.80
2023-07-23T18:38:24.334Z,2.53
2023-07-23T18:40:55.153Z,2.23
2023-07-23T18:43:23.089Z,2.00
2023-07-23T18:45:52.766Z,2.20
2023-07-23T18:48:20.766Z,2.20
2023-07-23T18:50:49.367Z,2.30
2023-07-23T18:53:17.322Z,1.90
2023-07-23T18:55:45.293Z,2.17
2023-07-23T18:58:13.247Z,2.13
2023-07-23T19:00:41.559Z,2.23
2023-07-23T19:03:10.922Z,2.40
2023-07-23T19:05:38.892Z,2.13
2023-07-23T19:08:06.892Z,2.17
2023-07-23T19:10:34.860Z,2.17
2023-07-23T19:13:02.826Z,2.20
2023-07-23T19:15:30.855Z,2.10
2023-07-23T19:17:58.846Z,1.90
2023-07-23T19:20:28.236Z,1.90
2023-07-23T19:22:56.198Z,2.10
2023-07-23T19:25:27.111Z,2.13
2023-07-23T19:27:57.467Z,2.10
2023-07-23T19:30:25.473Z,2.10
2023-07-23T19:32:53.453Z,2.00
2023-07-23T19:35:21.384Z,2.00
2023-07-23T19:37:50.930Z,2.13
2023-07-23T19:40:18.942Z,2.40
2023-07-23T19:42:46.930Z,2.23
2023-07-23T19:45:14.906Z,2.20
2023-07-23T19:47:42.900Z,2.20
2023-07-23T19:50:11.535Z,2.10
2023-07-23T19:52:39.489Z,2.20
2023-07-23T19:55:09.694Z,2.40
2023-07-23T19:57:37.629Z,2.00
2023-07-23T20:00:06.649Z,2.13
2023-07-23T20:02:36.514Z,2.00
2023-07-23T20:05:05.093Z,2.10
2023-07-23T20:07:33.132Z,2.13
2023-07-23T20:10:01.172Z,1.87
2023-07-23T20:12:30.621Z,2.30
2023-07-23T20:14:58.660Z,2.50
2023-07-23T20:17:27.775Z,2.40
2023-07-23T20:19:55.798Z,2.00
2023-07-23T20:22:23.752Z,2.07
2023-07-23T20:24:52.012Z,2.10
2023-07-23T20:27:19.993Z,2.13
2023-07-23T20:29:50.042Z,2.43
2023-07-23T20:32:18.344Z,2.10
2023-07-23T20:34:49.002Z,2.30
2023-07-23T20:37:17.380Z,2.10
2023-07-23T20:39:45.806Z,2.00
2023-07-23T20:42:14.571Z,2.40
2023-07-23T20:44:43.876Z,2.00
2023-07-23T20:47:13.423Z,2.20
2023-07-23T20:49:41.395Z,1.87
2023-07-23T20:52:09.382Z,1.93
2023-07-23T20:54:37.439Z,2.00
2023-07-23T20:57:05.983Z,2.20
2023-07-23T20:59:33.928Z,2.30
2023-07-23T21:02:01.931Z,2.33
2023-07-23T21:04:31.269Z,2.27
2023-07-23T21:06:59.224Z,2.20
2023-07-23T21:09:27.159Z,2.30
2023-07-23T21:11:55.147Z,2.27
2023-07-23T21:14:23.079Z,2.30
2023-07-23T21:16:51.114Z,2.00
2023-07-23T21:19:19.054Z,2.13
2023-07-23T21:21:48.350Z,2.30
2023-07-23T21:24:16.340Z,2.03
2023-07-23T21:26:45.761Z,2.40
2023-07-23T21:29:13.767Z,2.27
2023-07-23T21:31:41.737Z,2.13
2023-07-23T21:34:09.656Z,2.40
2023-07-23T21:36:37.666Z,2.40
2023-07-23T21:39:06.987Z,2.30
2023-07-23T21:41:34.976Z,2.10
2023-07-23T21:44:02.900Z,2.10
2023-07-23T21:46:31.002Z,2.17
2023-07-23T21:48:59.208Z,2.40
2023-07-23T21:51:27.181Z,2.10
2023-07-23T21:53:57.294Z,2.10
2023-07-23T21:56:27.321Z,1.77
2023-07-23T21:58:55.551Z,2.20
2023-07-23T22:01:23.626Z,2.30
2023-07-23T22:06:22.048Z,2.10
2023-07-23T22:08:50.266Z,2.47
2023-07-23T22:11:18.228Z,2.60
2023-07-23T22:13:47.686Z,2.53
2023-07-23T22:16:15.661Z,2.47
2023-07-23T22:18:43.951Z,2.17
2023-07-23T22:21:12.013Z,2.00
2023-07-23T22:23:39.951Z,2.23
2023-07-23T22:26:07.914Z,2.20
2023-07-23T22:28:36.105Z,2.20
2023-07-23T22:31:05.504Z,2.27
2023-07-23T22:33:33.541Z,2.10
2023-07-23T22:36:01.488Z,2.37
2023-07-23T22:38:29.376Z,2.30
2023-07-23T22:40:57.325Z,2.37
2023-07-23T22:43:25.240Z,2.20
2023-07-23T22:45:54.701Z,2.60
2023-07-23T22:48:26.102Z,2.00
2023-07-23T22:50:54.257Z,2.30
2023-07-23T22:53:22.201Z,2.07
2023-07-23T22:55:50.141Z,2.03
2023-07-23T22:58:18.091Z,2.30
2023-07-23T23:00:46.064Z,2.40
2023-07-23T23:03:14.128Z,2.10
2023-07-23T23:05:43.490Z,2.37
2023-07-23T23:08:11.458Z,2.20
2023-07-23T23:10:39.431Z,2.30
2023-07-23T23:13:07.333Z,2.00
2023-07-23T23:15:35.279Z,2.20
2023-07-23T23:18:03.433Z,2.30
2023-07-23T23:20:31.425Z,2.63
2023-07-23T23:23:00.728Z,2.40
2023-07-23T23:25:28.638Z,2.40
2023-07-23T23:27:56.560Z,2.50
2023-07-23T23:30:24.476Z,2.30
2023-07-23T23:32:52.453Z,2.40
2023-07-23T23:35:20.437Z,2.30
2023-07-23T23:37:48.925Z,2.40
2023-07-23T23:40:18.319Z,2.30
2023-07-23T23:42:46.277Z,2.50
2023-07-23T23:45:14.183Z,2.40
2023-07-23T23:47:42.193Z,2.33
2023-07-23T23:50:10.950Z,2.40
2023-07-23T23:52:38.975Z,2.30
2023-07-23T23:55:07.430Z,2.30
2023-07-23T23:57:36.773Z,2.10
